Time;durP1;ratioP1;P1;durP2;ratioP2;P2;SDS_P1;SDS_P2;PMS_P1;PMS_P2;Temp;Humidity;BMP_temperature;BMP_pressure;BME280_temperature;BME280_humidity;BME280_pressure;Samples;Min_cycle;Max_cycle;Signal;HPM_P1;HPM_P2
2023/05/29 00:01:44;;;;;;;14.48;4.68;;;14.40;99.90;;;;;;5076356;28;20659;-64
2023/05/29 00:04:12;;;;;;;16.88;4.32;;;14.30;99.90;;;;;;5094602;28;20241;-64
2023/05/29 00:06:37;;;;;;;15.88;4.65;;;15.70;99.90;;;;;;5094674;28;20187;-64
2023/05/29 00:09:04;;;;;;;21.98;4.63;;;;;;;;;;5094503;28;20164;-64
2023/05/29 00:11:29;;;;;;;16.65;4.28;;;14.30;99.90;;;;;;5094438;28;20172;-64
2023/05/29 00:13:56;;;;;;;18.20;4.20;;;14.30;99.90;;;;;;5094479;28;20167;-64
2023/05/29 00:16:23;;;;;;;21.20;4.38;;;14.20;99.90;;;;;;5076165;28;20313;-64
2023/05/29 00:18:49;;;;;;;15.93;4.18;;;14.20;99.90;;;;;;5094378;28;20254;-64
2023/05/29 00:21:15;;;;;;;11.50;4.63;;;14.20;99.90;;;;;;5094249;28;20160;-64
2023/05/29 00:23:41;;;;;;;16.65;4.65;;;14.10;99.90;;;;;;5094239;28;20214;-66
2023/05/29 00:26:07;;;;;;;22.60;5.30;;;14.10;99.90;;;;;;5094264;28;20176;-64
2023/05/29 00:28:34;;;;;;;17.15;5.45;;;14.10;99.90;;;;;;5094083;28;20244;-64
2023/05/29 00:31:00;;;;;;;17.48;5.60;;;14.00;99.90;;;;;;5094214;28;20172;-64
2023/05/29 00:33:26;;;;;;;19.95;5.57;;;14.00;99.90;;;;;;5093953;28;20254;-63
2023/05/29 00:35:51;;;;;;;18.42;4.93;;;14.10;99.90;;;;;;5093998;28;20584;-64
2023/05/29 00:38:17;;;;;;;18.08;4.45;;;13.80;99.90;;;;;;5093916;28;20594;-63
2023/05/29 00:40:43;;;;;;;20.80;5.05;;;13.90;99.90;;;;;;5093714;28;20636;-63
2023/05/29 00:43:08;;;;;;;16.40;4.50;;;13.80;99.90;;;;;;5093796;28;20202;-63
2023/05/29 00:45:36;;;;;;;16.35;3.80;;;13.80;99.90;;;;;;5093736;28;20204;-63
2023/05/29 00:48:03;;;;;;;12.65;3.90;;;13.70;99.90;;;;;;5093545;28;20226;-63
2023/05/29 00:50:29;;;;;;;18.02;4.63;;;13.70;99.90;;;;;;5093849;28;20164;-63
2023/05/29 00:52:55;;;;;;;21.55;4.47;;;13.70;99.90;;;;;;5093523;28;20195;-63
2023/05/29 00:55:21;;;;;;;14.88;3.67;;;13.60;99.90;;;;;;5093656;28;20302;-63
2023/05/29 00:57:49;;;;;;;19.67;4.32;;;13.50;99.90;;;;;;5093494;28;20167;-63
2023/05/29 01:00:15;;;;;;;19.67;4.22;;;13.50;99.90;;;;;;5093683;28;20176;-62
2023/05/29 01:02:44;;;;;;;20.20;3.83;;;13.50;99.90;;;;;;5092994;28;20190;-63
2023/05/29 01:05:14;;;;;;;19.80;3.67;;;13.40;99.90;;;;;;5093780;28;20290;-62
2023/05/29 01:07:44;;;;;;;19.55;3.65;;;13.30;99.90;;;;;;5093446;28;20172;-62
2023/05/29 01:10:10;;;;;;;18.30;3.78;;;13.30;99.90;;;;;;5093342;28;20696;-62
2023/05/29 01:12:43;;;;;;;17.63;3.40;;;13.30;99.90;;;;;;5075437;28;20241;-62
2023/05/29 01:15:16;;;;;;;14.30;3.47;;;13.20;99.90;;;;;;5093220;28;20654;-62
2023/05/29 01:18:22;;;;;;;17.87;3.63;;;13.20;99.90;;;;;;5093371;28;20171;-62
2023/05/29 01:21:02;;;;;;;18.73;3.40;;;13.10;99.90;;;;;;5093160;28;20191;-63
2023/05/29 01:23:46;;;;;;;10.23;2.50;;;13.00;99.90;;;;;;5092978;28;20204;-63
2023/05/29 01:26:51;;;;;;;14.83;3.00;;;12.80;99.90;;;;;;5093075;28;20187;-63
2023/05/29 01:29:24;;;;;;;17.00;3.58;;;12.90;99.90;;;;;;5091227;28;20180;-62
2023/05/29 01:31:51;;;;;;;15.27;3.17;;;12.90;99.90;;;;;;5092748;28;20270;-62
2023/05/29 01:34:17;;;;;;;12.27;2.83;;;12.70;99.90;;;;;;5082329;28;20173;-62
2023/05/29 01:36:42;;;;;;;19.70;3.20;;;12.70;99.90;;;;;;5072534;28;20676;-62
2023/05/29 01:39:09;;;;;;;16.40;3.05;;;12.60;99.90;;;;;;5072480;28;20172;-62
2023/05/29 01:41:35;;;;;;;13.27;3.40;;;12.60;99.90;;;;;;5072380;28;20164;-62
2023/05/29 01:44:08;;;;;;;16.38;3.70;;;12.60;99.90;;;;;;5072311;28;20216;-62
2023/05/29 01:46:35;;;;;;;15.43;2.80;;;12.50;99.90;;;;;;5083418;28;20207;-62
2023/05/29 01:49:01;;;;;;;19.17;3.45;;;12.50;99.90;;;;;;5092552;28;20180;-62
2023/05/29 01:51:27;;;;;;;13.13;2.83;;;12.50;99.90;;;;;;5092481;28;20224;-62
2023/05/29 01:53:52;;;;;;;15.67;3.17;;;12.50;99.90;;;;;;5092387;28;20370;-62
2023/05/29 01:56:19;;;;;;;15.70;2.90;;;13.00;99.90;;;;;;5092329;28;20197;-62
2023/05/29 01:58:45;;;;;;;21.98;3.75;;;12.30;99.90;;;;;;5092171;28;20164;-62
2023/05/29 02:01:11;;;;;;;12.03;3.10;;;12.30;99.90;;;;;;5092194;28;20312;-62
2023/05/29 02:03:37;;;;;;;16.97;2.80;;;12.30;99.90;;;;;;5092197;28;20274;-62
2023/05/29 02:06:02;;;;;;;17.23;3.42;;;12.30;99.90;;;;;;5092058;28;20173;-62
2023/05/29 02:08:28;;;;;;;12.27;3.07;;;12.30;99.90;;;;;;5091994;28;20168;-62
2023/05/29 02:10:54;;;;;;;19.53;3.30;;;12.30;99.90;;;;;;5092092;28;20175;-62
2023/05/29 02:13:20;;;;;;;18.33;3.40;;;12.20;99.90;;;;;;5091012;28;20187;-62
2023/05/29 02:15:46;;;;;;;15.47;3.17;;;12.20;99.90;;;;;;5092145;28;20171;-62
2023/05/29 02:18:14;;;;;;;17.50;3.33;;;12.10;99.90;;;;;;5091899;28;20277;-64
2023/05/29 02:20:40;;;;;;;19.13;2.93;;;12.10;99.90;;;;;;5091950;28;20171;-63
2023/05/29 02:23:08;;;;;;;17.87;2.87;;;12.00;99.90;;;;;;5080147;28;20172;-63
2023/05/29 02:25:34;;;;;;;10.77;3.20;;;12.00;99.90;;;;;;5071597;28;20199;-64
2023/05/29 02:28:00;;;;;;;23.40;3.80;;;12.30;99.90;;;;;;5071549;28;20160;-64
2023/05/29 02:30:25;;;;;;;13.57;3.17;;;12.00;99.90;;;;;;5084764;28;20533;-61
2023/05/29 02:32:51;;;;;;;17.77;3.30;;;12.00;99.90;;;;;;5091710;28;20568;-61
2023/05/29 02:35:20;;;;;;;15.37;3.00;;;;;;;;;;5091678;28;20250;-62
2023/05/29 02:37:46;;;;;;;20.30;3.47;;;11.90;99.90;;;;;;5091990;28;20676;-62
2023/05/29 02:40:12;;;;;;;16.80;3.07;;;11.90;99.90;;;;;;5091693;28;20176;-61
2023/05/29 02:42:37;;;;;;;17.07;3.13;;;11.90;99.90;;;;;;5091584;28;20168;-61
2023/05/29 02:45:03;;;;;;;12.87;2.90;;;11.90;99.90;;;;;;5089191;28;20211;-65
2023/05/29 02:47:29;;;;;;;15.73;3.00;;;11.80;99.90;;;;;;5090957;28;20280;-61
2023/05/29 02:49:55;;;;;;;17.77;3.20;;;11.80;99.90;;;;;;5091315;28;20652;-61
2023/05/29 02:52:20;;;;;;;16.47;3.07;;;11.80;99.90;;;;;;5091115;28;20176;-61
2023/05/29 02:54:46;;;;;;;19.53;3.30;;;11.70;99.90;;;;;;5090598;28;20218;-61
2023/05/29 02:57:12;;;;;;;15.93;3.13;;;11.70;99.90;;;;;;5087068;28;20440;-61
2023/05/29 02:59:38;;;;;;;13.83;2.90;;;13.80;99.90;;;;;;5076843;28;20636;-62
2023/05/29 03:02:03;;;;;;;17.20;3.23;;;11.60;99.90;;;;;;5081835;28;20175;-62
2023/05/29 03:04:29;;;;;;;13.77;2.90;;;11.60;99.90;;;;;;5090848;28;20215;-61
2023/05/29 03:06:55;;;;;;;15.97;3.10;;;11.60;99.90;;;;;;5090844;28;20640;-63
2023/05/29 03:09:21;;;;;;;13.30;2.50;;;11.50;99.90;;;;;;5078395;28;20645;-64
2023/05/29 03:11:49;;;;;;;15.57;3.23;;;11.50;99.90;;;;;;5071221;28;20227;-61
2023/05/29 03:14:15;;;;;;;14.77;2.63;;;11.50;99.90;;;;;;5070940;28;20180;-60
2023/05/29 03:16:40;;;;;;;18.13;2.90;;;11.50;99.90;;;;;;5078026;28;20652;-64
2023/05/29 03:19:07;;;;;;;15.63;2.67;;;11.50;99.90;;;;;;5090981;28;20164;-61
2023/05/29 03:21:33;;;;;;;16.20;2.77;;;11.60;99.90;;;;;;5090719;28;20229;-61
2023/05/29 03:23:59;;;;;;;17.13;2.87;;;11.50;99.90;;;;;;5090390;28;20219;-61
2023/05/29 03:26:25;;;;;;;13.93;2.87;;;11.40;99.90;;;;;;5090664;28;20164;-61
2023/05/29 03:28:51;;;;;;;17.57;3.23;;;11.40;99.90;;;;;;5089379;28;20232;-61
2023/05/29 03:31:17;;;;;;;10.27;2.40;;;11.00;99.90;;;;;;5090859;28;20179;-61
2023/05/29 03:33:42;;;;;;;15.60;2.70;;;11.30;99.90;;;;;;5090633;28;20176;-61
2023/05/29 03:36:08;;;;;;;14.10;2.97;;;11.10;99.90;;;;;;5090493;28;20164;-62
2023/05/29 03:38:34;;;;;;;15.73;2.87;;;11.20;99.90;;;;;;5090572;28;20549;-61
2023/05/29 03:41:00;;;;;;;16.07;2.70;;;;;;;;;;5090904;28;20198;-62
2023/05/29 03:43:26;;;;;;;16.20;3.13;;;11.30;99.90;;;;;;5090357;28;20214;-61
2023/05/29 03:45:51;;;;;;;14.57;2.90;;;11.30;99.90;;;;;;5090589;28;20186;-61
2023/05/29 03:48:17;;;;;;;17.77;2.80;;;11.20;99.90;;;;;;5090085;28;20219;-62
2023/05/29 03:50:42;;;;;;;10.13;2.60;;;11.50;99.90;;;;;;5090089;28;20263;-61
2023/05/29 03:53:08;;;;;;;12.27;2.77;;;11.30;99.90;;;;;;5090531;28;20194;-61
2023/05/29 03:55:34;;;;;;;15.60;2.70;;;11.20;99.90;;;;;;5090653;28;20245;-61
2023/05/29 03:57:59;;;;;;;16.97;3.00;;;11.20;99.90;;;;;;5090652;28;20198;-61
2023/05/29 04:00:25;;;;;;;9.57;2.80;;;11.10;99.90;;;;;;5090707;28;20166;-61
2023/05/29 04:02:51;;;;;;;12.33;2.37;;;11.10;99.90;;;;;;5090710;28;20180;-62
2023/05/29 04:05:17;;;;;;;11.33;2.40;;;11.10;99.90;;;;;;5090573;28;20215;-61
2023/05/29 04:07:42;;;;;;;13.83;2.60;;;11.10;99.90;;;;;;5090654;28;20167;-61
2023/05/29 04:10:08;;;;;;;15.80;2.90;;;11.20;99.90;;;;;;5090532;28;20279;-61
2023/05/29 04:12:34;;;;;;;13.83;2.57;;;11.10;99.90;;;;;;5090523;28;20222;-61
2023/05/29 04:15:00;;;;;;;13.73;2.90;;;11.10;99.90;;;;;;5090518;28;20175;-61
2023/05/29 04:17:26;;;;;;;12.13;2.47;;;11.10;99.90;;;;;;5090589;28;20249;-61
2023/05/29 04:19:52;;;;;;;16.50;2.67;;;11.20;99.90;;;;;;5090403;28;20659;-62
2023/05/29 04:22:19;;;;;;;13.50;2.63;;;11.10;99.90;;;;;;5090741;28;20189;-61
2023/05/29 04:24:45;;;;;;;16.53;2.83;;;12.60;99.90;;;;;;5090411;28;20204;-61
2023/05/29 04:27:12;;;;;;;13.73;2.67;;;11.20;99.90;;;;;;5090387;28;20689;-61
2023/05/29 04:29:40;;;;;;;16.43;2.63;;;11.20;99.90;;;;;;5090454;28;20259;-61
2023/05/29 04:32:08;;;;;;;15.53;2.53;;;11.10;99.90;;;;;;5090450;28;20180;-61
2023/05/29 04:34:34;;;;;;;14.13;2.43;;;11.10;99.90;;;;;;5090376;28;20190;-61
2023/05/29 04:37:00;;;;;;;14.80;2.70;;;11.10;99.90;;;;;;5092487;28;20708;-60
2023/05/29 04:39:25;;;;;;;20.13;3.30;;;11.10;99.90;;;;;;5093881;28;20278;-60
2023/05/29 04:41:51;;;;;;;9.33;2.67;;;11.10;99.90;;;;;;5093905;28;20168;-61
2023/05/29 04:44:17;;;;;;;18.53;2.87;;;11.10;99.90;;;;;;5093749;28;20711;-60
2023/05/29 04:46:44;;;;;;;16.17;3.40;;;;;;;;;;5093539;28;20212;-61
2023/05/29 04:49:11;;;;;;;12.63;3.23;;;11.10;99.90;;;;;;5093791;28;20593;-61
2023/05/29 04:51:40;;;;;;;15.53;2.90;;;11.00;99.90;;;;;;5093925;28;20251;-61
2023/05/29 04:54:06;;;;;;;16.90;3.00;;;11.30;99.90;;;;;;5093821;28;20279;-61
2023/05/29 04:56:32;;;;;;;22.27;2.80;;;11.10;99.90;;;;;;5093748;28;20238;-61
2023/05/29 04:59:01;;;;;;;20.40;3.27;;;;;;;;;;5093669;28;20254;-61
2023/05/29 05:01:27;;;;;;;14.63;3.27;;;11.10;99.90;;;;;;5093558;28;20663;-63
2023/05/29 05:03:55;;;;;;;19.47;2.80;;;11.10;99.90;;;;;;5093408;28;20212;-62
2023/05/29 05:06:22;;;;;;;11.37;2.90;;;11.10;99.90;;;;;;5093450;28;20667;-63
2023/05/29 05:08:47;;;;;;;24.17;4.03;;;11.00;99.90;;;;;;5093419;28;20550;-63
2023/05/29 05:11:14;;;;;;;16.90;4.00;;;11.20;99.90;;;;;;5075333;28;20176;-62
2023/05/29 05:13:39;;;;;;;15.47;3.03;;;11.20;99.90;;;;;;5075246;28;20172;-63
2023/05/29 05:16:06;;;;;;;17.97;2.97;;;11.20;99.90;;;;;;5093230;28;20636;-62
2023/05/29 05:18:31;;;;;;;15.90;3.13;;;11.20;99.90;;;;;;5093257;28;20233;-62
2023/05/29 05:20:57;;;;;;;16.37;3.00;;;11.20;99.90;;;;;;5093253;28;20629;-63
2023/05/29 05:23:23;;;;;;;19.90;3.10;;;11.40;99.90;;;;;;5093099;28;20632;-63
2023/05/29 05:25:48;;;;;;;14.50;3.00;;;11.20;99.90;;;;;;5093132;28;20313;-60
2023/05/29 05:28:14;;;;;;;12.50;2.70;;;11.20;99.90;;;;;;5092972;28;20207;-60
2023/05/29 05:30:40;;;;;;;15.53;3.20;;;11.30;99.90;;;;;;5092970;28;20696;-61
2023/05/29 05:33:06;;;;;;;16.63;3.10;;;11.20;99.90;;;;;;5092914;28;20251;-60
2023/05/29 05:35:31;;;;;;;17.90;2.83;;;11.20;99.90;;;;;;5092928;28;20402;-61
2023/05/29 05:38:00;;;;;;;17.27;3.27;;;11.20;99.90;;;;;;5092953;28;20176;-61
2023/05/29 05:40:26;;;;;;;15.83;2.97;;;11.20;99.90;;;;;;5091176;28;20695;-61
2023/05/29 05:42:51;;;;;;;13.13;3.03;;;11.20;99.90;;;;;;5074462;28;20184;-61
2023/05/29 05:45:17;;;;;;;19.60;3.30;;;11.50;99.90;;;;;;5089042;28;20695;-62
2023/05/29 05:47:43;;;;;;;18.27;2.70;;;;;;;;;;5091986;28;20592;-61
2023/05/29 05:50:09;;;;;;;15.73;2.93;;;11.40;99.90;;;;;;5092566;28;20225;-61
2023/05/29 05:52:34;;;;;;;14.57;3.43;;;11.40;99.90;;;;;;5092409;28;20171;-60
2023/05/29 05:55:00;;;;;;;19.20;3.23;;;;;;;;;;5092470;28;20222;-62
2023/05/29 05:57:27;;;;;;;17.57;2.93;;;11.30;99.90;;;;;;5092350;28;20171;-62
2023/05/29 05:59:52;;;;;;;17.80;3.30;;;11.40;99.90;;;;;;5091672;28;20179;-62
2023/05/29 06:02:18;;;;;;;20.30;3.17;;;11.50;99.90;;;;;;5092285;28;20172;-62
2023/05/29 06:04:44;;;;;;;14.67;3.20;;;;;;;;;;5092047;28;20203;-61
2023/05/29 06:07:10;;;;;;;24.37;3.60;;;11.40;99.90;;;;;;5092319;28;20493;-62
2023/05/29 06:09:37;;;;;;;15.37;3.20;;;11.60;99.90;;;;;;5092002;28;20185;-62
2023/05/29 06:12:02;;;;;;;16.90;3.43;;;11.90;99.90;;;;;;5092075;28;20168;-62
2023/05/29 06:14:28;;;;;;;17.10;3.50;;;11.70;99.90;;;;;;5092008;28;20178;-62
2023/05/29 06:16:54;;;;;;;13.53;3.07;;;;;;;;;;5092021;28;20199;-61
2023/05/29 06:19:20;;;;;;;20.23;3.20;;;11.80;99.90;;;;;;5091963;28;20167;-62
2023/05/29 06:21:46;;;;;;;13.60;2.70;;;11.80;99.90;;;;;;5092022;28;20167;-62
2023/05/29 06:24:12;;;;;;;17.13;2.57;;;;;;;;;;5091816;28;20211;-62
2023/05/29 06:26:39;;;;;;;19.10;3.20;;;12.00;99.90;;;;;;5091831;28;20664;-62
2023/05/29 06:29:06;;;;;;;31.00;3.47;;;12.10;99.90;;;;;;5091766;28;20542;-62
2023/05/29 06:31:33;;;;;;;13.67;2.47;;;12.00;99.90;;;;;;5091198;28;20179;-63
2023/05/29 06:33:58;;;;;;;11.47;2.47;;;12.00;99.90;;;;;;5091828;28;20195;-61
2023/05/29 06:36:24;;;;;;;15.00;2.73;;;12.10;99.90;;;;;;5091809;28;20592;-63
2023/05/29 06:38:50;;;;;;;12.70;2.17;;;12.30;99.90;;;;;;5091649;28;20664;-63
2023/05/29 06:41:16;;;;;;;13.40;2.97;;;12.10;99.90;;;;;;5091599;28;20254;-64
2023/05/29 06:43:42;;;;;;;12.87;2.57;;;12.10;99.90;;;;;;5091360;28;20219;-63
2023/05/29 06:46:07;;;;;;;10.27;2.57;;;12.20;99.90;;;;;;5091324;28;20275;-63
2023/05/29 06:48:34;;;;;;;11.82;2.45;;;12.30;99.90;;;;;;5091435;28;20191;-63
2023/05/29 06:51:00;;;;;;;11.47;2.83;;;12.40;99.90;;;;;;5091549;28;20262;-62
2023/05/29 06:53:26;;;;;;;13.20;2.80;;;12.50;99.90;;;;;;5091336;28;20262;-63
2023/05/29 06:55:53;;;;;;;15.87;3.03;;;12.50;99.90;;;;;;5090512;28;20725;-63
2023/05/29 06:58:18;;;;;;;9.63;2.07;;;12.50;99.90;;;;;;5090949;28;20171;-64
2023/05/29 07:00:44;;;;;;;14.90;3.00;;;12.60;99.90;;;;;;5090705;28;20279;-64
2023/05/29 07:03:10;;;;;;;12.67;2.77;;;12.80;99.90;;;;;;5091226;28;20615;-64
2023/05/29 07:05:36;;;;;;;15.70;3.03;;;12.90;99.90;;;;;;5091375;28;20258;-64
2023/05/29 07:08:01;;;;;;;12.00;2.30;;;12.90;99.90;;;;;;5090483;28;20636;-64
2023/05/29 07:10:27;;;;;;;14.10;2.53;;;13.10;99.90;;;;;;5090472;28;20176;-59
2023/05/29 07:12:52;;;;;;;15.37;2.67;;;12.90;99.90;;;;;;5090766;28;20203;-60
2023/05/29 07:15:18;;;;;;;10.30;1.97;;;13.10;99.90;;;;;;5090255;28;20179;-59
2023/05/29 07:17:44;;;;;;;11.27;2.35;;;13.10;99.90;;;;;;5091104;28;20171;-60
2023/05/29 07:20:10;;;;;;;10.33;2.50;;;13.30;99.90;;;;;;5091033;28;20562;-59
2023/05/29 07:22:36;;;;;;;8.55;2.05;;;13.30;99.90;;;;;;5090965;28;20232;-59
2023/05/29 07:25:03;;;;;;;10.38;2.08;;;13.50;99.90;;;;;;5090813;28;20667;-59
2023/05/29 07:27:29;;;;;;;14.33;2.17;;;13.40;99.90;;;;;;5090865;28;20159;-59
2023/05/29 07:29:55;;;;;;;11.40;2.23;;;13.30;99.90;;;;;;5090837;28;20636;-59
2023/05/29 07:32:21;;;;;;;15.87;2.50;;;13.40;99.90;;;;;;5072999;28;20628;-59
2023/05/29 07:34:49;;;;;;;11.85;2.40;;;13.70;99.90;;;;;;5090933;28;20191;-59
2023/05/29 07:37:15;;;;;;;7.20;2.00;;;13.60;99.90;;;;;;5073254;28;20176;-60
2023/05/29 07:39:42;;;;;;;13.85;2.13;;;13.70;99.90;;;;;;5090166;28;20184;-59
2023/05/29 07:42:07;;;;;;;15.48;2.67;;;13.90;99.90;;;;;;5090801;28;20649;-60
2023/05/29 07:44:33;;;;;;;9.70;2.60;;;13.80;99.90;;;;;;5090100;28;20222;-60
2023/05/29 07:46:59;;;;;;;8.43;2.15;;;13.90;99.90;;;;;;5090579;28;20216;-60
2023/05/29 07:49:24;;;;;;;11.63;2.03;;;13.90;99.90;;;;;;5090618;28;20271;-60
2023/05/29 07:51:50;;;;;;;10.68;2.30;;;13.90;99.90;;;;;;5090613;28;20225;-60
2023/05/29 07:54:18;;;;;;;8.68;2.08;;;13.90;99.90;;;;;;5090235;28;20176;-60
2023/05/29 07:56:44;;;;;;;11.32;2.40;;;13.90;99.90;;;;;;5088669;28;20508;-60
2023/05/29 07:59:10;;;;;;;11.05;2.08;;;14.00;99.90;;;;;;5090422;28;20160;-60
2023/05/29 08:01:37;;;;;;;9.88;2.25;;;13.90;99.90;;;;;;5090523;28;20186;-61
2023/05/29 08:04:03;;;;;;;6.55;2.28;;;14.20;99.90;;;;;;5090309;28;20239;-60
2023/05/29 08:06:28;;;;;;;6.95;1.95;;;16.00;99.90;;;;;;5089234;28;20188;-60
2023/05/29 08:08:54;;;;;;;11.15;2.78;;;14.50;99.90;;;;;;5090444;28;20640;-60
2023/05/29 08:11:21;;;;;;;8.35;2.38;;;14.50;99.90;;;;;;5091785;28;20201;-60
2023/05/29 08:13:47;;;;;;;10.00;2.17;;;14.70;99.90;;;;;;5093398;28;20640;-60
2023/05/29 08:16:15;;;;;;;9.05;2.72;;;14.80;99.90;;;;;;5094317;28;20168;-60
2023/05/29 08:18:41;;;;;;;10.82;2.60;;;14.90;99.90;;;;;;5094454;28;20209;-60
2023/05/29 08:21:07;;;;;;;9.93;2.40;;;15.10;99.90;;;;;;5094269;28;20774;-60
2023/05/29 08:23:32;;;;;;;11.32;2.83;;;15.20;99.90;;;;;;5093609;28;20713;-59
2023/05/29 08:25:58;;;;;;;9.60;2.55;;;15.20;99.90;;;;;;5093940;28;20317;-58
2023/05/29 08:28:26;;;;;;;8.93;2.03;;;15.10;99.90;;;;;;5094163;28;20535;-59
2023/05/29 08:30:52;;;;;;;6.13;1.70;;;15.00;99.90;;;;;;5094223;28;20192;-60
2023/05/29 08:33:18;;;;;;;8.48;2.55;;;15.40;99.90;;;;;;5094250;28;20164;-61
2023/05/29 08:35:43;;;;;;;10.45;2.28;;;15.50;99.90;;;;;;5094176;28;20570;-59
2023/05/29 08:38:09;;;;;;;8.68;2.30;;;15.70;99.90;;;;;;5093837;28;20160;-59
2023/05/29 08:40:35;;;;;;;10.10;2.58;;;15.60;99.90;;;;;;5093901;28;20225;-59
2023/05/29 08:43:12;;;;;;;8.65;2.15;;;15.60;99.90;;;;;;5093573;28;20171;-60
2023/05/29 08:45:43;;;;;;;8.50;2.25;;;15.90;99.90;;;;;;5093606;28;20207;-60
2023/05/29 08:48:10;;;;;;;8.40;2.17;;;16.10;99.90;;;;;;5093099;28;20216;-60
2023/05/29 08:50:42;;;;;;;6.38;2.20;;;16.50;99.90;;;;;;5093125;28;20251;-60
2023/05/29 08:53:08;;;;;;;8.77;2.33;;;16.70;99.90;;;;;;5092660;28;20172;-60
2023/05/29 08:55:33;;;;;;;8.07;2.35;;;16.90;99.90;;;;;;5093802;28;20182;-60
2023/05/29 08:57:59;;;;;;;9.63;2.30;;;16.80;99.90;;;;;;5075403;28;20172;-59
2023/05/29 09:00:28;;;;;;;11.55;2.28;;;17.20;99.90;;;;;;5093547;28;20687;-59
2023/05/29 09:02:55;;;;;;;11.13;2.20;;;17.50;99.90;;;;;;5093422;28;20225;-59
2023/05/29 09:05:23;;;;;;;7.43;1.98;;;17.50;99.90;;;;;;5093245;28;20703;-59
2023/05/29 09:07:49;;;;;;;6.93;2.45;;;17.50;99.90;;;;;;5093386;28;20191;-59
2023/05/29 09:10:15;;;;;;;9.07;2.45;;;17.70;99.90;;;;;;5093371;28;20645;-59
2023/05/29 09:12:41;;;;;;;8.65;2.10;;;18.20;99.90;;;;;;5093022;28;20172;-59
2023/05/29 09:15:27;;;;;;;8.32;2.45;;;18.50;99.90;;;;;;5092672;28;20248;-59
2023/05/29 09:17:54;;;;;;;7.57;1.73;;;18.30;99.90;;;;;;5093205;28;20164;-60
2023/05/29 09:20:24;;;;;;;7.82;2.03;;;18.70;99.90;;;;;;5093055;28;20217;-60
2023/05/29 09:23:01;;;;;;;8.02;2.00;;;18.40;99.90;;;;;;5092213;28;20249;-59
2023/05/29 09:25:32;;;;;;;6.43;2.28;;;18.30;99.90;;;;;;5092688;28;20263;-59
2023/05/29 09:27:59;;;;;;;6.43;1.92;;;18.20;99.90;;;;;;5074762;28;20521;-60
2023/05/29 09:30:31;;;;;;;5.22;1.73;;;18.60;99.90;;;;;;5092873;28;20556;-60
2023/05/29 09:33:00;;;;;;;11.75;2.55;;;19.20;99.90;;;;;;5092716;28;20656;-60
2023/05/29 09:35:26;;;;;;;7.07;2.13;;;19.10;99.90;;;;;;5091928;28;20263;-60
2023/05/29 09:37:52;;;;;;;10.57;2.20;;;19.10;99.90;;;;;;5092730;28;20204;-59
2023/05/29 09:40:18;;;;;;;6.85;1.80;;;19.70;99.90;;;;;;5090946;28;20208;-59
2023/05/29 09:42:43;;;;;;;9.52;2.65;;;19.80;99.90;;;;;;5090568;28;20621;-59
2023/05/29 09:45:09;;;;;;;7.88;2.20;;;19.60;99.90;;;;;;5074101;28;20207;-59
2023/05/29 09:47:35;;;;;;;6.85;1.65;;;19.80;99.90;;;;;;5092357;28;20219;-60
2023/05/29 09:50:01;;;;;;;6.55;2.13;;;19.40;99.90;;;;;;5091887;28;20628;-59
2023/05/29 09:52:30;;;;;;;7.10;2.05;;;19.50;99.90;;;;;;5092413;28;20247;-59
2023/05/29 09:54:56;;;;;;;7.10;2.00;;;19.70;99.90;;;;;;5092259;28;20206;-60
2023/05/29 09:57:24;;;;;;;11.77;2.60;;;20.30;99.90;;;;;;5092298;28;20167;-60
2023/05/29 09:59:52;;;;;;;7.78;2.20;;;20.40;99.90;;;;;;5092134;28;20183;-60
2023/05/29 10:02:18;;;;;;;9.68;2.28;;;20.60;99.90;;;;;;5091640;28;20253;-59
2023/05/29 10:04:44;;;;;;;8.85;2.30;;;20.60;99.90;;;;;;5090605;28;20226;-59
2023/05/29 10:07:28;;;;;;;8.20;2.20;;;20.80;99.90;;;;;;5092058;28;20160;-60
2023/05/29 10:10:03;;;;;;;6.63;2.10;;;20.20;99.90;;;;;;5084358;28;20176;-60
2023/05/29 10:12:31;;;;;;;5.93;2.40;;;20.00;99.90;;;;;;5091549;28;20168;-59
2023/05/29 10:14:59;;;;;;;7.85;2.42;;;19.90;99.90;;;;;;5089600;28;20183;-59
2023/05/29 10:17:28;;;;;;;5.90;2.10;;;19.90;99.90;;;;;;5091705;28;20194;-59
2023/05/29 10:19:58;;;;;;;13.23;2.20;;;20.00;99.90;;;;;;5091707;28;20666;-59
2023/05/29 10:22:26;;;;;;;9.80;2.20;;;20.00;99.90;;;;;;5091455;28;20172;-60
2023/05/29 10:24:52;;;;;;;8.63;1.98;;;20.70;99.90;;;;;;5091293;28;20756;-60
2023/05/29 10:27:20;;;;;;;8.20;1.88;;;20.20;99.90;;;;;;5091715;28;20180;-60
2023/05/29 10:29:57;;;;;;;7.18;2.00;;;20.50;99.90;;;;;;5091238;28;20209;-59
2023/05/29 10:32:42;;;;;;;9.93;2.15;;;19.70;99.90;;;;;;5091657;28;20164;-60
2023/05/29 10:35:20;;;;;;;11.20;2.35;;;20.10;99.90;;;;;;5090767;28;20509;-60
2023/05/29 10:37:57;;;;;;;7.82;2.38;;;20.60;99.90;;;;;;5091324;28;20171;-60
2023/05/29 10:40:27;;;;;;;11.90;2.28;;;20.70;99.90;;;;;;5091597;28;20163;-60
2023/05/29 10:42:57;;;;;;;7.15;2.03;;;21.30;99.20;;;;;;5091439;28;20160;-61
2023/05/29 10:45:32;;;;;;;4.95;1.60;;;21.40;99.90;;;;;;5090815;28;20242;-60
2023/05/29 10:48:06;;;;;;;6.05;1.70;;;21.10;90.80;;;;;;5068487;28;20219;-60
2023/05/29 10:50:45;;;;;;;5.68;1.80;;;21.10;90.40;;;;;;5090221;28;20179;-60
2023/05/29 10:53:14;;;;;;;9.63;1.83;;;20.90;85.70;;;;;;5090516;28;20720;-60
2023/05/29 10:55:41;;;;;;;12.90;2.08;;;20.90;82.90;;;;;;5091003;28;20172;-59
2023/05/29 10:58:20;;;;;;;9.80;1.98;;;20.80;76.10;;;;;;5083006;28;20195;-60
2023/05/29 11:00:47;;;;;;;6.63;1.92;;;20.70;88.00;;;;;;5070750;28;20188;-60
2023/05/29 11:03:31;;;;;;;8.70;2.05;;;21.10;88.50;;;;;;5070708;28;20199;-60
2023/05/29 11:06:10;;;;;;;9.35;2.15;;;21.30;75.40;;;;;;5070438;28;20249;-60
2023/05/29 11:08:45;;;;;;;8.15;2.20;;;20.90;74.30;;;;;;5070734;28;20199;-60
2023/05/29 11:11:12;;;;;;;8.30;2.00;;;21.90;74.60;;;;;;5086091;28;20177;-60
2023/05/29 11:13:40;;;;;;;6.28;1.77;;;21.40;70.60;;;;;;5090880;28;20196;-60
2023/05/29 11:16:29;;;;;;;7.10;1.85;;;21.70;74.90;;;;;;5091128;28;20220;-60
2023/05/29 11:18:55;;;;;;;5.97;1.90;;;21.50;69.00;;;;;;5080150;28;20234;-60
2023/05/29 11:21:33;;;;;;;8.60;1.92;;;21.40;70.40;;;;;;5090805;28;20176;-60
2023/05/29 11:24:02;;;;;;;6.25;1.98;;;22.10;71.40;;;;;;5091025;28;20211;-60
2023/05/29 11:26:29;;;;;;;7.15;2.03;;;22.10;56.30;;;;;;5091029;28;20176;-61
2023/05/29 11:28:58;;;;;;;8.20;2.05;;;22.20;56.30;;;;;;5090917;28;20164;-60
2023/05/29 11:31:25;;;;;;;5.35;2.08;;;22.50;45.40;;;;;;5072602;28;20175;-61
2023/05/29 11:33:54;;;;;;;8.20;1.95;;;21.80;54.70;;;;;;5090893;28;20254;-61
2023/05/29 11:36:22;;;;;;;7.53;2.10;;;21.90;53.80;;;;;;5091009;28;20168;-60
2023/05/29 11:38:48;;;;;;;7.55;2.03;;;;;;;;;;5090853;28;20179;-61
2023/05/29 11:41:16;;;;;;;5.70;1.88;;;22.40;44.20;;;;;;5090832;28;20213;-61
2023/05/29 11:43:42;;;;;;;4.95;2.05;;;22.30;35.10;;;;;;5090476;28;20660;-60
2023/05/29 11:46:20;;;;;;;7.75;2.20;;;22.40;35.30;;;;;;5093103;28;20190;-60
2023/05/29 11:48:47;;;;;;;8.30;2.08;;;23.60;38.00;;;;;;5094707;28;20172;-60
2023/05/29 11:51:13;;;;;;;8.88;2.45;;;23.70;35.10;;;;;;5094846;28;20164;-60
2023/05/29 11:53:43;;;;;;;11.23;1.85;;;24.00;29.80;;;;;;5094949;28;20682;-60
2023/05/29 11:56:10;;;;;;;5.35;1.55;;;23.90;22.60;;;;;;5094596;28;20695;-60
2023/05/29 11:58:37;;;;;;;11.63;1.95;;;23.70;18.00;;;;;;5094671;28;20160;-60
2023/05/29 12:01:03;;;;;;;10.55;2.10;;;23.90;14.30;;;;;;5094624;28;20171;-60
2023/05/29 12:03:29;;;;;;;5.30;1.83;;;24.40;12.40;;;;;;5059915;28;20253;-60
2023/05/29 12:05:55;;;;;;;7.32;1.85;;;24.00;12.60;;;;;;5076422;28;20204;-60
2023/05/29 12:08:25;;;;;;;8.32;1.90;;;24.30;1.00;;;;;;5076221;28;20172;-60
2023/05/29 12:10:52;;;;;;;12.57;1.77;;;24.40;1.00;;;;;;5094318;28;20175;-61
2023/05/29 12:13:21;;;;;;;6.68;1.80;;;24.10;1.00;;;;;;5094414;28;20163;-61
2023/05/29 12:15:49;;;;;;;7.38;2.08;;;23.80;1.00;;;;;;5094577;28;20230;-60
2023/05/29 12:18:15;;;;;;;7.65;1.80;;;24.50;1.00;;;;;;5094300;28;20217;-60
2023/05/29 12:20:41;;;;;;;8.50;2.05;;;24.60;1.00;;;;;;5094240;28;20252;-60
2023/05/29 12:23:07;;;;;;;9.43;2.00;;;25.30;1.00;;;;;;5094281;28;20176;-60
2023/05/29 12:25:37;;;;;;;4.75;1.70;;;25.20;1.00;;;;;;5094144;28;20241;-61
2023/05/29 12:28:04;;;;;;;6.90;2.00;;;24.70;1.00;;;;;;5094202;28;20281;-61
2023/05/29 12:30:30;;;;;;;5.05;1.98;;;25.40;1.00;;;;;;5094096;28;20164;-61
2023/05/29 12:32:57;;;;;;;6.90;1.70;;;25.90;1.00;;;;;;5094067;28;20176;-61
2023/05/29 12:35:26;;;;;;;6.60;2.40;;;25.10;1.00;;;;;;5093864;28;20164;-61
2023/05/29 12:38:01;;;;;;;7.68;2.08;;;25.40;1.00;;;;;;5093898;28;20176;-61
2023/05/29 12:40:27;;;;;;;7.03;1.90;;;25.50;1.00;;;;;;5094094;28;20167;-61
2023/05/29 12:42:56;;;;;;;6.60;2.05;;;24.60;1.00;;;;;;5093925;28;20168;-62
2023/05/29 12:45:26;;;;;;;6.53;2.25;;;25.20;1.00;;;;;;5093783;28;20292;-61